createdAt,value
2018-11-06T01:29:51.264Z,11.25
2018-11-06T01:29:51.837Z,11.31
2018-11-06T01:29:52.437Z,11.25
2018-11-06T01:29:53.036Z,11.27
2018-11-06T01:29:53.636Z,11.27
2018-11-06T01:29:54.236Z,11.21
2018-11-06T01:29:54.836Z,11.31
2018-11-06T01:29:55.437Z,11.29
2018-11-06T01:30:49.939Z,11.24
2018-11-06T01:30:50.511Z,11.29
2018-11-06T01:30:51.116Z,11.31
2018-11-06T01:30:51.711Z,11.25
2018-11-06T01:30:52.312Z,11.24
2018-11-06T01:30:52.912Z,11.31
2018-11-06T01:30:53.518Z,11.29
2018-11-06T01:30:54.111Z,11.25
2018-11-06T01:31:47.592Z,11.20
2018-11-06T01:31:48.166Z,11.27
2018-11-06T01:31:48.764Z,11.32
2018-11-06T01:31:49.364Z,11.25
2018-11-06T01:31:49.964Z,11.21
2018-11-06T01:31:50.565Z,11.27
2018-11-06T01:31:51.168Z,11.32
2018-11-06T01:31:51.763Z,11.35
2018-11-06T01:32:45.245Z,11.27
2018-11-06T01:32:45.817Z,11.31
2018-11-06T01:32:46.415Z,11.27
2018-11-06T01:32:47.017Z,11.27
2018-11-06T01:32:47.617Z,11.35
2018-11-06T01:32:48.216Z,11.28
2018-11-06T01:32:48.816Z,11.28
2018-11-06T01:32:49.415Z,11.29
2018-11-06T01:33:43.920Z,11.31
2018-11-06T01:33:44.492Z,11.32
2018-11-06T01:33:45.094Z,11.29
2018-11-06T01:33:45.692Z,11.31
2018-11-06T01:33:46.291Z,11.32
2018-11-06T01:33:46.893Z,11.28
2018-11-06T01:33:47.495Z,11.29
2018-11-06T01:33:48.091Z,11.27
2018-11-06T01:34:42.597Z,11.31
2018-11-06T01:34:43.171Z,11.31
2018-11-06T01:34:43.767Z,11.31
2018-11-06T01:34:44.371Z,11.38
2018-11-06T01:34:44.968Z,11.29
2018-11-06T01:34:45.568Z,11.41
2018-11-06T01:34:46.168Z,11.32
2018-11-06T01:34:46.768Z,11.21
2018-11-06T01:35:41.273Z,11.32
2018-11-06T01:35:41.846Z,11.44
2018-11-06T01:35:42.445Z,11.29
2018-11-06T01:35:43.044Z,11.34
2018-11-06T01:35:43.644Z,11.31
2018-11-06T01:35:44.245Z,11.27
2018-11-06T01:35:44.844Z,11.36
2018-11-06T01:35:45.444Z,11.34
2018-11-06T01:36:39.950Z,11.32
2018-11-06T01:36:40.520Z,11.39
2018-11-06T01:36:41.120Z,11.29
2018-11-06T01:36:41.723Z,11.41
2018-11-06T01:36:42.320Z,11.38
2018-11-06T01:36:42.919Z,11.36
2018-11-06T01:36:43.520Z,11.39
2018-11-06T01:36:44.120Z,11.39
2018-11-06T01:37:37.603Z,11.35
2018-11-06T01:37:38.174Z,11.38
2018-11-06T01:37:38.777Z,11.41
2018-11-06T01:37:39.375Z,11.41
2018-11-06T01:37:39.972Z,11.28
2018-11-06T01:37:40.572Z,11.39
2018-11-06T01:37:41.173Z,11.35
2018-11-06T01:37:41.772Z,11.32
2018-11-06T01:38:35.257Z,11.41
2018-11-06T01:38:35.826Z,11.39
2018-11-06T01:38:36.426Z,11.34
2018-11-06T01:38:37.025Z,11.35
2018-11-06T01:38:37.625Z,11.29
2018-11-06T01:38:38.226Z,11.34
2018-11-06T01:38:38.825Z,11.34
2018-11-06T01:38:39.424Z,11.43
2018-11-06T01:39:33.926Z,11.28
2018-11-06T01:39:34.500Z,11.38
2018-11-06T01:39:35.100Z,11.36
2018-11-06T01:39:35.701Z,11.36
2018-11-06T01:39:36.301Z,11.32
2018-11-06T01:39:36.900Z,11.31
2018-11-06T01:39:37.500Z,11.34
2018-11-06T01:39:38.100Z,11.35
2018-11-06T01:40:32.604Z,11.38
2018-11-06T01:40:33.178Z,11.44
2018-11-06T01:40:33.777Z,11.31
2018-11-06T01:40:34.377Z,11.34
2018-11-06T01:40:34.976Z,11.39
2018-11-06T01:40:35.577Z,11.44
2018-11-06T01:40:36.176Z,11.31
2018-11-06T01:40:36.778Z,11.32
2018-11-06T01:41:31.279Z,11.32
2018-11-06T01:41:31.854Z,11.39
2018-11-06T01:41:32.453Z,11.35
2018-11-06T01:41:33.054Z,11.49
2018-11-06T01:41:33.654Z,11.41
2018-11-06T01:41:34.256Z,11.41
2018-11-06T01:41:34.852Z,11.39
2018-11-06T01:41:35.451Z,11.38
2018-11-06T01:42:28.934Z,11.44
2018-11-06T01:42:29.505Z,11.44
2018-11-06T01:42:30.107Z,11.38
2018-11-06T01:42:30.705Z,11.44
2018-11-06T01:42:31.307Z,11.43
2018-11-06T01:42:31.909Z,11.39
2018-11-06T01:42:32.505Z,11.41
2018-11-06T01:42:33.104Z,11.43
2018-11-06T01:43:27.606Z,11.46
2018-11-06T01:43:28.180Z,11.46
2018-11-06T01:43:28.780Z,11.47
2018-11-06T01:43:29.379Z,11.50
2018-11-06T01:43:29.979Z,11.46
2018-11-06T01:43:30.580Z,11.47
2018-11-06T01:43:31.177Z,11.49
2018-11-06T01:43:31.787Z,11.49
2018-11-06T01:44:26.283Z,11.47
2018-11-06T01:44:26.856Z,11.53
2018-11-06T01:44:27.458Z,11.50
2018-11-06T01:44:28.056Z,11.47
2018-11-06T01:44:28.656Z,11.49
2018-11-06T01:44:29.257Z,11.50
2018-11-06T01:44:29.855Z,11.47
2018-11-06T01:44:30.455Z,11.50
2018-11-06T01:45:24.959Z,11.49
2018-11-06T01:45:25.535Z,11.49
2018-11-06T01:45:26.129Z,11.53
2018-11-06T01:45:26.729Z,11.54
2018-11-06T01:45:27.329Z,11.53
2018-11-06T01:45:27.929Z,11.56
2018-11-06T01:45:28.531Z,11.61
2018-11-06T01:45:29.129Z,11.50
2018-11-06T01:46:22.613Z,11.52
2018-11-06T01:46:23.186Z,11.52
2018-11-06T01:46:23.783Z,11.54
2018-11-06T01:46:24.385Z,11.50
2018-11-06T01:46:24.983Z,11.54
2018-11-06T01:46:25.584Z,11.54
2018-11-06T01:46:26.184Z,11.52
2018-11-06T01:46:26.783Z,11.54
2018-11-06T01:47:21.286Z,11.53
2018-11-06T01:47:21.859Z,11.47
2018-11-06T01:47:22.459Z,11.57
2018-11-06T01:47:23.068Z,11.50
2018-11-06T01:47:23.659Z,11.50
2018-11-06T01:47:24.260Z,11.52
2018-11-06T01:47:24.859Z,11.49
2018-11-06T01:47:25.460Z,11.44
2018-11-06T01:48:19.962Z,11.54
2018-11-06T01:48:20.535Z,11.62
2018-11-06T01:48:21.135Z,11.49
2018-11-06T01:48:21.736Z,11.50
2018-11-06T01:48:22.335Z,11.64
2018-11-06T01:48:22.935Z,11.52
2018-11-06T01:48:23.535Z,11.53
2018-11-06T01:48:24.135Z,11.61
2018-11-06T01:49:17.614Z,11.53
2018-11-06T01:49:18.187Z,11.61
2018-11-06T01:49:18.788Z,11.65
2018-11-06T01:49:19.388Z,11.64
2018-11-06T01:49:19.989Z,11.53
2018-11-06T01:49:20.587Z,11.57
2018-11-06T01:49:21.190Z,11.62
2018-11-06T01:49:21.786Z,11.57
2018-11-06T01:50:15.277Z,11.57
2018-11-06T01:50:15.842Z,11.64
2018-11-06T01:50:16.440Z,11.67
2018-11-06T01:50:17.083Z,11.64
2018-11-06T01:50:17.640Z,11.64
2018-11-06T01:50:18.241Z,11.67
2018-11-06T01:50:18.839Z,11.68
2018-11-06T01:50:19.441Z,11.67
2018-11-06T01:51:13.940Z,11.67
2018-11-06T01:51:14.515Z,11.71
2018-11-06T01:51:15.114Z,11.64
2018-11-06T01:51:15.715Z,11.71
2018-11-06T01:51:16.313Z,11.62
2018-11-06T01:51:16.914Z,11.68
2018-11-06T01:51:17.514Z,11.70
2018-11-06T01:51:18.116Z,11.74
2018-11-06T01:52:12.618Z,11.75
2018-11-06T01:52:13.190Z,11.74
2018-11-06T01:52:13.789Z,11.74
2018-11-06T01:52:14.389Z,11.77
2018-11-06T01:52:14.990Z,11.71
2018-11-06T01:52:15.593Z,11.71
2018-11-06T01:52:16.188Z,11.75
2018-11-06T01:52:16.788Z,11.70
2018-11-06T01:53:10.270Z,11.75
2018-11-06T01:53:10.843Z,11.78
2018-11-06T01:53:11.442Z,11.75
2018-11-06T01:53:12.042Z,11.75
2018-11-06T01:53:12.644Z,11.71
2018-11-06T01:53:13.242Z,11.70
2018-11-06T01:53:13.841Z,11.80
2018-11-06T01:53:14.441Z,11.70
2018-11-06T01:54:08.944Z,11.82
2018-11-06T01:54:09.520Z,11.78
2018-11-06T01:54:10.117Z,11.82
2018-11-06T01:54:10.719Z,11.77
2018-11-06T01:54:11.316Z,11.83
2018-11-06T01:54:11.919Z,11.80
2018-11-06T01:54:12.518Z,11.83
2018-11-06T01:54:13.116Z,11.75
2018-11-06T01:55:07.619Z,11.80
2018-11-06T01:55:08.193Z,11.93
2018-11-06T01:55:08.792Z,11.87
2018-11-06T01:55:09.395Z,11.75
2018-11-06T01:55:09.994Z,11.83
2018-11-06T01:55:10.593Z,11.85
2018-11-06T01:55:11.191Z,11.89
2018-11-06T01:55:11.792Z,11.75
2018-11-06T01:56:05.285Z,11.83
2018-11-06T01:56:05.846Z,11.90
2018-11-06T01:56:06.445Z,11.78
2018-11-06T01:56:07.047Z,11.93
2018-11-06T01:56:07.646Z,11.83
2018-11-06T01:56:08.245Z,11.87
2018-11-06T01:56:08.845Z,11.87
2018-11-06T01:56:09.445Z,11.85
2018-11-06T01:57:03.951Z,11.89
2018-11-06T01:57:04.523Z,11.94
2018-11-06T01:57:05.122Z,11.89
2018-11-06T01:57:05.723Z,11.86
2018-11-06T01:57:06.320Z,11.85
2018-11-06T01:57:06.920Z,11.89
2018-11-06T01:57:07.520Z,11.89
2018-11-06T01:57:08.118Z,11.85
2018-11-06T01:58:02.623Z,11.89
2018-11-06T01:58:03.196Z,11.89
2018-11-06T01:58:03.795Z,11.86
2018-11-06T01:58:04.394Z,11.83
2018-11-06T01:58:04.997Z,11.93
2018-11-06T01:58:05.596Z,11.94
2018-11-06T01:58:06.195Z,11.90
2018-11-06T01:58:06.797Z,11.83
2018-11-06T01:59:00.276Z,11.93
2018-11-06T01:59:00.848Z,11.85
2018-11-06T01:59:01.449Z,11.87
2018-11-06T01:59:02.052Z,11.87
2018-11-06T01:59:02.647Z,11.93
2018-11-06T01:59:03.251Z,11.93
2018-11-06T01:59:03.846Z,11.94
2018-11-06T01:59:04.448Z,11.96
2018-11-06T01:59:57.929Z,11.97
2018-11-06T01:59:58.501Z,11.86
2018-11-06T01:59:59.101Z,11.96
2018-11-06T01:59:59.700Z,11.96
2018-11-06T02:00:00.300Z,11.96
2018-11-06T02:00:00.902Z,11.90
2018-11-06T02:00:01.503Z,11.94
2018-11-06T02:00:02.107Z,11.90
2018-11-06T02:00:56.603Z,11.99
2018-11-06T02:00:57.175Z,11.93
2018-11-06T02:00:57.776Z,11.96
2018-11-06T02:00:58.378Z,11.97
2018-11-06T02:00:58.977Z,11.94
2018-11-06T02:00:59.574Z,11.96
2018-11-06T02:01:00.175Z,11.97
2018-11-06T02:01:00.776Z,11.97
2018-11-06T02:01:54.254Z,11.96
2018-11-06T02:01:54.828Z,12.01
2018-11-06T02:01:55.430Z,12.02
2018-11-06T02:01:56.028Z,12.08
2018-11-06T02:01:56.627Z,12.02
2018-11-06T02:01:57.233Z,11.97
2018-11-06T02:01:57.829Z,12.02
2018-11-06T02:01:58.429Z,11.99
2018-11-06T02:02:51.909Z,11.97
2018-11-06T02:02:52.479Z,12.02
2018-11-06T02:02:53.079Z,11.99
2018-11-06T02:02:53.680Z,11.99
2018-11-06T02:02:54.281Z,11.99
2018-11-06T02:02:54.881Z,11.97
2018-11-06T02:02:55.480Z,12.05
2018-11-06T02:02:56.079Z,12.01
2018-11-06T02:03:50.581Z,12.01
2018-11-06T02:03:51.155Z,11.99
2018-11-06T02:03:51.753Z,11.97
2018-11-06T02:03:52.355Z,11.97
2018-11-06T02:03:52.955Z,12.04
2018-11-06T02:03:53.553Z,11.99
2018-11-06T02:03:54.153Z,11.99
2018-11-06T02:03:54.754Z,11.99
2018-11-06T02:04:48.237Z,12.01
2018-11-06T02:04:48.806Z,12.04
2018-11-06T02:04:49.407Z,12.02
2018-11-06T02:04:50.007Z,12.06
2018-11-06T02:04:50.607Z,11.96
2018-11-06T02:04:51.206Z,12.04
2018-11-06T02:04:51.807Z,11.99
2018-11-06T02:04:52.405Z,12.06
2018-11-06T02:05:45.888Z,11.99
2018-11-06T02:05:46.459Z,12.01
2018-11-06T02:05:47.060Z,12.01
2018-11-06T02:05:47.658Z,12.01
2018-11-06T02:05:48.257Z,12.04
2018-11-06T02:05:48.857Z,12.05
2018-11-06T02:05:49.457Z,12.01
2018-11-06T02:05:50.059Z,12.02
2018-11-06T02:06:44.561Z,12.02
2018-11-06T02:06:45.133Z,12.11
2018-11-06T02:06:45.733Z,12.08
2018-11-06T02:06:46.333Z,12.11
2018-11-06T02:06:46.934Z,12.09
2018-11-06T02:06:47.534Z,12.11
2018-11-06T02:06:48.133Z,12.08
2018-11-06T02:06:48.733Z,12.02
2018-11-06T02:07:42.215Z,12.08
2018-11-06T02:07:42.802Z,12.05
2018-11-06T02:07:43.385Z,12.12
2018-11-06T02:07:43.986Z,12.08
2018-11-06T02:07:44.583Z,12.05
2018-11-06T02:07:45.184Z,12.04
2018-11-06T02:07:45.785Z,12.11
2018-11-06T02:07:46.386Z,12.04
2018-11-06T02:08:40.888Z,12.05
2018-11-06T02:08:41.461Z,12.08
2018-11-06T02:08:42.062Z,12.13
2018-11-06T02:08:42.661Z,12.13
2018-11-06T02:08:43.262Z,12.15
2018-11-06T02:08:43.861Z,12.02
2018-11-06T02:08:44.461Z,12.06
2018-11-06T02:08:45.064Z,12.13
2018-11-06T02:09:39.564Z,12.13
2018-11-06T02:09:40.138Z,12.16
2018-11-06T02:09:40.737Z,12.13
2018-11-06T02:09:41.337Z,12.12
2018-11-06T02:09:41.935Z,12.08
2018-11-06T02:09:42.537Z,12.08
2018-11-06T02:09:43.135Z,12.13
2018-11-06T02:09:43.737Z,12.08
2018-11-06T02:10:38.242Z,12.13
2018-11-06T02:10:38.815Z,12.11
2018-11-06T02:10:39.413Z,12.13
2018-11-06T02:10:40.013Z,12.12
2018-11-06T02:10:40.615Z,12.15
2018-11-06T02:10:41.216Z,12.12
2018-11-06T02:10:41.812Z,12.09
2018-11-06T02:10:42.411Z,12.15
2018-11-06T02:11:36.916Z,12.04
2018-11-06T02:11:37.487Z,12.15
2018-11-06T02:11:38.089Z,12.15
2018-11-06T02:11:38.688Z,12.09
2018-11-06T02:11:39.288Z,12.19
2018-11-06T02:11:39.887Z,12.13
2018-11-06T02:11:40.487Z,12.09
2018-11-06T02:11:41.091Z,12.13
2018-11-06T02:12:35.591Z,12.06
2018-11-06T02:12:36.166Z,12.12
2018-11-06T02:12:36.764Z,12.11
2018-11-06T02:12:37.364Z,12.15
2018-11-06T02:12:37.963Z,12.08
2018-11-06T02:12:38.563Z,12.13
2018-11-06T02:12:39.164Z,12.09
2018-11-06T02:12:39.764Z,12.12
2018-11-06T02:13:33.242Z,12.05
2018-11-06T02:13:33.816Z,12.06
2018-11-06T02:13:34.417Z,12.15
2018-11-06T02:13:35.017Z,12.13
2018-11-06T02:13:35.617Z,12.12
2018-11-06T02:13:36.215Z,12.15
2018-11-06T02:13:36.815Z,12.11
2018-11-06T02:13:37.418Z,12.08
2018-11-06T02:14:31.921Z,12.12
2018-11-06T02:14:32.491Z,12.09
2018-11-06T02:14:33.096Z,12.12
2018-11-06T02:14:33.692Z,12.20
2018-11-06T02:14:34.297Z,12.20
2018-11-06T02:14:34.890Z,12.08
2018-11-06T02:14:35.492Z,12.20
2018-11-06T02:14:36.090Z,12.12
2018-11-06T02:15:30.599Z,12.08
2018-11-06T02:15:31.167Z,12.16
2018-11-06T02:15:31.765Z,12.15
2018-11-06T02:15:32.367Z,12.09
2018-11-06T02:15:32.966Z,12.11
2018-11-06T02:15:33.566Z,12.15
2018-11-06T02:15:34.165Z,12.09
2018-11-06T02:15:34.765Z,12.16
2018-11-06T02:16:29.271Z,12.08
2018-11-06T02:16:29.844Z,12.13
2018-11-06T02:16:30.445Z,12.15
2018-11-06T02:16:31.043Z,12.12
2018-11-06T02:16:31.643Z,12.15
2018-11-06T02:16:32.242Z,12.13
2018-11-06T02:16:32.842Z,12.09
2018-11-06T02:16:33.442Z,12.13
2018-11-06T02:17:26.922Z,12.06
2018-11-06T02:17:27.497Z,12.13
2018-11-06T02:17:28.095Z,12.13
2018-11-06T02:17:28.695Z,12.16
2018-11-06T02:17:29.296Z,12.15
2018-11-06T02:17:29.896Z,12.13
2018-11-06T02:17:30.495Z,12.12
2018-11-06T02:17:31.097Z,12.16
2018-11-06T02:18:25.599Z,12.08
2018-11-06T02:18:26.172Z,12.09
2018-11-06T02:18:26.770Z,12.13
2018-11-06T02:18:27.371Z,12.20
2018-11-06T02:18:27.971Z,12.11
2018-11-06T02:18:28.573Z,12.12
2018-11-06T02:18:29.168Z,12.19
2018-11-06T02:18:29.768Z,12.15
2018-11-06T02:19:23.252Z,12.16
2018-11-06T02:19:23.823Z,12.20
2018-11-06T02:19:24.422Z,12.19
2018-11-06T02:19:25.024Z,12.13
2018-11-06T02:19:25.623Z,12.13
2018-11-06T02:19:26.223Z,12.21
2018-11-06T02:19:26.822Z,12.19
2018-11-06T02:19:27.422Z,12.13
2018-11-06T02:20:21.927Z,12.19
2018-11-06T02:20:22.499Z,12.20
2018-11-06T02:20:23.098Z,12.20
2018-11-06T02:20:23.698Z,12.20
2018-11-06T02:20:24.297Z,12.16
2018-11-06T02:20:24.897Z,12.23
2018-11-06T02:20:25.497Z,12.15
2018-11-06T02:20:26.097Z,12.15
2018-11-06T02:21:19.581Z,12.19
2018-11-06T02:21:20.155Z,12.19
2018-11-06T02:21:20.753Z,12.16
2018-11-06T02:21:21.351Z,12.15
2018-11-06T02:21:21.950Z,12.15
2018-11-06T02:21:22.548Z,12.23
2018-11-06T02:21:23.152Z,12.19
2018-11-06T02:21:23.749Z,12.21
2018-11-06T02:22:17.237Z,12.13
2018-11-06T02:22:17.801Z,12.16
2018-11-06T02:22:18.403Z,12.19
2018-11-06T02:22:19.001Z,12.16
2018-11-06T02:22:19.602Z,12.23
2018-11-06T02:22:20.203Z,12.13
2018-11-06T02:22:20.800Z,12.21
2018-11-06T02:22:21.399Z,12.24
2018-11-06T02:23:14.881Z,12.24
2018-11-06T02:23:15.453Z,12.19
2018-11-06T02:23:16.053Z,12.20
2018-11-06T02:23:16.652Z,12.13
2018-11-06T02:23:17.253Z,12.16
2018-11-06T02:23:17.853Z,12.21
2018-11-06T02:23:18.453Z,12.23
2018-11-06T02:23:19.052Z,12.16
2018-11-06T02:24:12.534Z,12.21
2018-11-06T02:24:13.106Z,12.13
2018-11-06T02:24:13.705Z,12.16
2018-11-06T02:24:14.308Z,12.16
2018-11-06T02:24:14.906Z,12.13
2018-11-06T02:24:15.509Z,12.15
2018-11-06T02:24:16.106Z,12.20
2018-11-06T02:24:16.706Z,12.20
2018-11-06T02:25:10.189Z,12.16
2018-11-06T02:25:10.757Z,12.20
2018-11-06T02:25:11.358Z,12.19
2018-11-06T02:25:11.960Z,12.23
2018-11-06T02:25:12.556Z,12.20
2018-11-06T02:25:13.159Z,12.21
2018-11-06T02:25:13.756Z,12.16
2018-11-06T02:25:14.357Z,12.15
2018-11-06T02:26:07.838Z,12.13
2018-11-06T02:26:08.409Z,12.16
2018-11-06T02:26:09.008Z,12.16
2018-11-06T02:26:09.609Z,12.13
2018-11-06T02:26:10.209Z,12.13
2018-11-06T02:26:10.809Z,12.15
2018-11-06T02:26:11.408Z,12.19
2018-11-06T02:26:12.008Z,12.21
2018-11-06T02:27:06.510Z,12.15
2018-11-06T02:27:07.085Z,12.19
2018-11-06T02:27:07.683Z,12.24
2018-11-06T02:27:08.284Z,12.19
2018-11-06T02:27:08.886Z,12.15
2018-11-06T02:27:09.484Z,12.20
2018-11-06T02:27:10.084Z,12.13
2018-11-06T02:27:10.683Z,12.20
2018-11-06T02:28:04.165Z,12.16
2018-11-06T02:28:04.736Z,12.21
2018-11-06T02:28:05.336Z,12.15
2018-11-06T02:28:05.935Z,12.16
2018-11-06T02:28:06.536Z,12.15
2018-11-06T02:28:07.136Z,12.12
2018-11-06T02:28:07.736Z,12.15
2018-11-06T02:28:08.336Z,12.20
2018-11-06T02:29:01.817Z,12.20
2018-11-06T02:29:02.389Z,12.19
2018-11-06T02:29:02.988Z,12.15
2018-11-06T02:29:03.588Z,12.15
2018-11-06T02:29:04.187Z,12.12
2018-11-06T02:29:04.787Z,12.16
2018-11-06T02:29:05.387Z,12.19
2018-11-06T02:29:05.986Z,12.15
2018-11-06T02:29:59.559Z,12.21
2018-11-06T02:30:00.063Z,12.11
2018-11-06T02:30:00.660Z,12.16
2018-11-06T02:30:01.261Z,12.19
2018-11-06T02:30:01.861Z,12.15
2018-11-06T02:30:02.459Z,12.19
2018-11-06T02:30:03.061Z,12.26
2018-11-06T02:30:03.666Z,12.15
2018-11-06T02:30:57.221Z,12.16
2018-11-06T02:30:57.799Z,12.19
2018-11-06T02:30:58.395Z,12.15
2018-11-06T02:30:58.995Z,12.19
2018-11-06T02:30:59.595Z,12.27
2018-11-06T02:31:00.193Z,12.21
2018-11-06T02:31:00.794Z,12.13
2018-11-06T02:31:01.394Z,12.19
2018-11-06T02:31:55.899Z,12.15
2018-11-06T02:31:56.469Z,12.16
2018-11-06T02:31:57.068Z,12.15
2018-11-06T02:31:57.668Z,12.16
2018-11-06T02:31:58.268Z,12.16
2018-11-06T02:31:58.868Z,12.13
2018-11-06T02:31:59.470Z,12.30
2018-11-06T02:32:00.071Z,12.30
2018-11-06T02:32:53.548Z,12.15
2018-11-06T02:32:54.122Z,12.24
2018-11-06T02:32:54.721Z,12.20
2018-11-06T02:32:55.322Z,12.15
2018-11-06T02:32:55.920Z,12.12
2018-11-06T02:32:56.525Z,12.27
2018-11-06T02:32:57.121Z,12.26
2018-11-06T02:32:57.720Z,12.19
2018-11-06T02:33:51.303Z,12.16
2018-11-06T02:33:51.877Z,12.21
2018-11-06T02:33:52.477Z,12.19
2018-11-06T02:33:53.076Z,12.21
2018-11-06T02:33:53.675Z,12.24
2018-11-06T02:33:54.275Z,12.16
2018-11-06T02:33:54.874Z,12.20
2018-11-06T02:33:55.474Z,12.16
2018-11-06T02:34:49.980Z,12.21
2018-11-06T02:34:50.550Z,12.12
2018-11-06T02:34:51.151Z,12.16
2018-11-06T02:34:51.755Z,12.19
2018-11-06T02:34:52.349Z,12.19
2018-11-06T02:34:52.949Z,12.15
2018-11-06T02:34:53.554Z,12.15
2018-11-06T02:34:54.149Z,12.27
2018-11-06T02:35:48.654Z,12.20
2018-11-06T02:35:49.227Z,12.13
2018-11-06T02:35:49.825Z,12.16
2018-11-06T02:35:50.427Z,12.15
2018-11-06T02:35:51.026Z,12.19
2018-11-06T02:35:51.625Z,12.16
2018-11-06T02:35:52.228Z,12.16
2018-11-06T02:35:52.826Z,12.15
2018-11-06T02:36:46.307Z,12.26
2018-11-06T02:36:46.879Z,12.30
2018-11-06T02:36:47.479Z,12.15
2018-11-06T02:36:48.081Z,12.29
2018-11-06T02:36:48.679Z,12.15
2018-11-06T02:36:49.278Z,12.29
2018-11-06T02:36:49.879Z,12.23
2018-11-06T02:36:50.477Z,12.23
2018-11-06T02:37:44.980Z,12.24
2018-11-06T02:37:45.554Z,12.23
2018-11-06T02:37:46.155Z,12.21
2018-11-06T02:37:46.756Z,12.16
2018-11-06T02:37:47.352Z,12.30
2018-11-06T02:37:47.952Z,12.30
2018-11-06T02:37:48.553Z,12.26
2018-11-06T02:37:49.152Z,12.27
2018-11-06T02:38:43.658Z,12.29
2018-11-06T02:38:44.228Z,12.33
2018-11-06T02:38:44.828Z,12.31
2018-11-06T02:38:45.435Z,12.29
2018-11-06T02:38:46.028Z,12.30
2018-11-06T02:38:46.626Z,12.29
2018-11-06T02:38:47.227Z,12.26
2018-11-06T02:38:47.827Z,12.20
2018-11-06T02:39:42.332Z,12.26
2018-11-06T02:39:42.905Z,12.31
2018-11-06T02:39:43.505Z,12.31
2018-11-06T02:39:44.104Z,12.29
2018-11-06T02:39:44.705Z,12.23
2018-11-06T02:39:45.306Z,12.30
2018-11-06T02:39:45.904Z,12.26
2018-11-06T02:39:46.505Z,12.30
2018-11-06T02:40:39.985Z,12.33
2018-11-06T02:40:40.559Z,12.27
2018-11-06T02:40:41.158Z,12.29
2018-11-06T02:40:41.758Z,12.29
2018-11-06T02:40:42.359Z,12.27
2018-11-06T02:40:42.957Z,12.30
2018-11-06T02:40:43.556Z,12.31
2018-11-06T02:40:44.158Z,12.33
2018-11-06T02:41:38.662Z,12.23
2018-11-06T02:41:39.237Z,12.20
2018-11-06T02:41:39.832Z,12.29
2018-11-06T02:41:40.432Z,12.29
2018-11-06T02:41:41.034Z,12.29
2018-11-06T02:41:41.632Z,12.31
2018-11-06T02:41:42.232Z,12.30
2018-11-06T02:41:42.832Z,12.33
2018-11-06T02:42:36.312Z,12.29
2018-11-06T02:42:36.885Z,12.33
2018-11-06T02:42:37.484Z,12.37
2018-11-06T02:42:38.087Z,12.33
2018-11-06T02:42:38.685Z,12.33
2018-11-06T02:42:39.287Z,12.30
2018-11-06T02:42:39.885Z,12.31
2018-11-06T02:42:40.483Z,12.33
2018-11-06T02:43:33.964Z,12.31
2018-11-06T02:43:34.537Z,12.31
2018-11-06T02:43:35.136Z,12.23
2018-11-06T02:43:35.736Z,12.31
2018-11-06T02:43:36.339Z,12.30
2018-11-06T02:43:36.936Z,12.20
2018-11-06T02:43:37.543Z,12.24
2018-11-06T02:43:38.137Z,12.31
2018-11-06T02:44:31.617Z,12.33
2018-11-06T02:44:32.191Z,12.21
2018-11-06T02:44:32.795Z,12.29
2018-11-06T02:44:33.389Z,12.33
2018-11-06T02:44:33.989Z,12.26
2018-11-06T02:44:34.589Z,12.31
2018-11-06T02:44:35.189Z,12.33
2018-11-06T02:44:35.787Z,12.24
2018-11-06T02:45:29.269Z,12.26
2018-11-06T02:45:29.840Z,12.30
2018-11-06T02:45:30.439Z,12.33
2018-11-06T02:45:31.041Z,12.33
2018-11-06T02:45:31.639Z,12.27
2018-11-06T02:45:32.239Z,12.26
2018-11-06T02:45:32.840Z,12.30
2018-11-06T02:45:33.440Z,12.31
2018-11-06T02:46:27.940Z,12.33
2018-11-06T02:46:28.515Z,12.29
2018-11-06T02:46:29.115Z,12.31
2018-11-06T02:46:29.715Z,12.24
2018-11-06T02:46:30.315Z,12.31
2018-11-06T02:46:30.913Z,12.34
2018-11-06T02:46:31.514Z,12.31
2018-11-06T02:46:32.116Z,12.30
2018-11-06T02:47:26.623Z,12.26
2018-11-06T02:47:27.190Z,12.26
2018-11-06T02:47:27.792Z,12.33
2018-11-06T02:47:28.391Z,12.29
2018-11-06T02:47:28.991Z,12.30
2018-11-06T02:47:29.590Z,12.33
2018-11-06T02:47:30.191Z,12.31
2018-11-06T02:47:30.788Z,12.30
2018-11-06T02:48:24.271Z,12.29
2018-11-06T02:48:24.842Z,12.30
2018-11-06T02:48:25.443Z,12.27
2018-11-06T02:48:26.042Z,12.30
2018-11-06T02:48:26.645Z,12.31
2018-11-06T02:48:27.243Z,12.31
2018-11-06T02:48:27.842Z,12.30
2018-11-06T02:48:28.441Z,12.31
2018-11-06T02:49:22.944Z,12.23
2018-11-06T02:49:23.520Z,12.33
2018-11-06T02:49:24.120Z,12.29
2018-11-06T02:49:24.725Z,12.31
2018-11-06T02:49:25.318Z,12.30
2018-11-06T02:49:25.917Z,12.31
2018-11-06T02:49:26.517Z,12.31
2018-11-06T02:49:27.118Z,12.30
2018-11-06T02:50:20.601Z,12.21
2018-11-06T02:50:21.171Z,12.29
2018-11-06T02:50:21.771Z,12.16
2018-11-06T02:50:22.370Z,12.31
2018-11-06T02:50:22.971Z,12.15
2018-11-06T02:50:23.570Z,12.26
2018-11-06T02:50:24.170Z,12.26
2018-11-06T02:50:24.770Z,12.29
2018-11-06T02:51:19.340Z,12.20
2018-11-06T02:51:19.848Z,12.30
2018-11-06T02:51:20.446Z,12.19
2018-11-06T02:51:21.045Z,12.16
2018-11-06T02:51:21.646Z,12.30
2018-11-06T02:51:22.247Z,12.19
2018-11-06T02:51:22.844Z,12.15
2018-11-06T02:51:23.445Z,12.15
2018-11-06T02:52:17.948Z,12.15
2018-11-06T02:52:18.520Z,12.19
2018-11-06T02:52:19.120Z,12.16
2018-11-06T02:52:19.722Z,12.16
2018-11-06T02:52:20.320Z,12.20
2018-11-06T02:52:20.920Z,12.13
2018-11-06T02:52:21.520Z,12.19
2018-11-06T02:52:22.121Z,12.20
2018-11-06T02:53:16.623Z,12.12
2018-11-06T02:53:17.197Z,12.21
2018-11-06T02:53:17.796Z,12.20
2018-11-06T02:53:18.396Z,12.23
2018-11-06T02:53:18.995Z,12.16
2018-11-06T02:53:19.597Z,12.16
2018-11-06T02:53:20.196Z,12.15
2018-11-06T02:53:20.841Z,12.21
2018-11-06T02:54:19.376Z,12.21
2018-11-06T05:44:51.699Z,10.47
2018-11-06T05:44:52.269Z,10.43
2018-11-06T05:44:52.869Z,10.52
2018-11-06T05:44:53.470Z,10.44
2018-11-06T05:44:54.069Z,10.46
2018-11-06T05:44:54.670Z,10.44
2018-11-06T05:44:55.271Z,10.43
2018-11-06T05:44:55.865Z,10.39
2018-11-06T05:45:49.351Z,10.37
2018-11-06T05:45:49.922Z,10.42
2018-11-06T05:45:50.522Z,10.33
2018-11-06T05:45:51.122Z,10.34
2018-11-06T05:45:51.723Z,10.46
2018-11-06T05:45:52.323Z,10.37
2018-11-06T05:45:52.921Z,10.34
2018-11-06T05:45:53.521Z,10.40
2018-11-06T05:46:47.003Z,10.34
2018-11-06T05:46:47.576Z,10.43
2018-11-06T05:46:48.175Z,10.36
2018-11-06T05:46:48.773Z,10.40
2018-11-06T05:46:49.374Z,10.46
2018-11-06T05:46:49.974Z,10.43
2018-11-06T05:46:50.574Z,10.40
2018-11-06T05:46:51.173Z,10.44
2018-11-06T05:47:44.656Z,10.28
2018-11-06T05:47:45.227Z,10.42
2018-11-06T05:47:45.825Z,10.36
2018-11-06T05:47:46.429Z,10.40
2018-11-06T05:47:47.026Z,10.36
2018-11-06T05:47:47.626Z,10.42
2018-11-06T05:47:48.226Z,10.30
2018-11-06T05:47:48.826Z,10.36
2018-11-06T05:48:43.331Z,10.36
2018-11-06T05:48:43.902Z,10.39
2018-11-06T05:48:44.503Z,10.46
2018-11-06T05:48:45.103Z,10.40
2018-11-06T05:48:45.700Z,10.42
2018-11-06T05:48:46.302Z,10.33
2018-11-06T05:48:46.901Z,10.42
2018-11-06T05:48:47.501Z,10.36
2018-11-06T05:49:42.006Z,10.34
2018-11-06T05:49:42.577Z,10.36
2018-11-06T05:49:43.176Z,10.34
2018-11-06T05:49:43.776Z,10.34
2018-11-06T05:49:44.379Z,10.32
2018-11-06T05:49:44.976Z,10.36
2018-11-06T05:49:45.575Z,10.33
2018-11-06T05:49:46.177Z,10.33
2018-11-06T05:50:40.688Z,10.40
2018-11-06T05:50:41.254Z,10.32
2018-11-06T05:50:41.858Z,10.36
2018-11-06T05:50:42.453Z,10.42
2018-11-06T05:50:43.052Z,10.37
2018-11-06T05:50:43.653Z,10.32
2018-11-06T05:50:44.258Z,10.33
2018-11-06T05:50:44.852Z,10.36
2018-11-06T05:51:38.335Z,10.34
2018-11-06T05:51:38.907Z,10.34
2018-11-06T05:51:39.507Z,10.30
2018-11-06T05:51:40.105Z,10.36
2018-11-06T05:51:40.705Z,10.33
2018-11-06T05:51:41.308Z,10.32
2018-11-06T05:51:41.906Z,10.36
2018-11-06T05:51:42.505Z,10.34
2018-11-06T05:52:37.010Z,10.39
2018-11-06T05:52:37.583Z,10.34
2018-11-06T05:52:38.187Z,10.32
2018-11-06T05:52:38.781Z,10.36
2018-11-06T05:52:39.380Z,10.32
2018-11-06T05:52:39.980Z,10.32
2018-11-06T05:52:40.579Z,10.33
2018-11-06T05:52:41.180Z,10.37
2018-11-06T05:53:35.686Z,10.34
2018-11-06T05:53:36.259Z,10.33
2018-11-06T05:53:36.857Z,10.34
2018-11-06T05:53:37.457Z,10.30